Date,TemperatureHighF,TemperatureAvgF,TemperatureLowF,DewpointHighF,DewpointAvgF,DewpointLowF,HumidityHigh,HumidityAvg,HumidityLow,PressureMaxIn,PressureMinIn,WindSpeedMaxMPH,WindSpeedAvgMPH,GustSpeedMaxMPH,PrecipitationSumIn
2013-8-2,73.0,65.9,59.0,66.0,61.8,56.0,93,87,78,29.85,29.78,3,1,0,0.00
2013-8-3,81.0,67.8,56.0,64.0,58.0,54.0,98,74,45,30.01,29.84,2,0,0,0.00
2013-8-4,76.0,63.0,53.0,59.0,54.8,52.0,97,77,45,30.13,30.01,0,0,0,0.00
2013-8-5,72.0,60.2,50.0,61.0,54.9,48.0,98,84,60,30.05,29.88,1,0,0,0.00
2013-8-6,76.0,67.6,62.0,69.0,64.2,59.0,96,89,77,29.88,29.79,2,0,0,0.00
2013-8-7,83.0,71.2,62.0,72.0,66.9,60.0,98,87,68,29.87,29.72,2,0,0,0.00
2013-8-8,79.0,66.5,56.0,61.0,57.2,55.0,95,75,44,29.97,29.87,1,0,0,0.00
2013-8-9,81.0,67.5,54.0,64.0,58.8,53.0,97,76,50,29.95,29.88,3,0,0,0.00
2013-8-10,80.0,67.4,57.0,61.0,57.6,54.0,95,73,46,30.08,29.95,1,0,0,0.00
2013-8-11,78.0,66.5,58.0,62.0,58.5,56.0,96,77,53,30.06,29.98,1,0,0,0.00
2013-8-12,76.0,66.3,61.0,68.0,62.7,58.0,96,88,70,29.99,29.79,1,0,0,0.00
2013-8-13,70.0,59.0,50.0,60.0,49.9,-99.9,95,76,54,30.04,29.83,1,0,0,0.00
2013-8-14,73.0,56.1,45.0,55.0,46.8,-99.9,98,76,46,30.14,30.04,1,0,0,0.00
2013-8-15,77.0,54.6,49.0,59.0,37.3,-99.9,97,74,47,30.10,30.02,1,0,0,0.00
2013-8-16,82.0,64.3,51.0,61.0,50.9,-99.9,98,71,40,30.14,30.06,0,0,0,0.00
2013-8-17,84.0,67.3,54.0,64.0,56.5,53.0,98,73,38,30.20,30.11,1,0,0,0.00
2013-8-18,82.0,67.4,54.0,64.0,55.3,-99.9,98,71,42,30.16,30.04,1,0,0,0.00
2013-8-19,83.0,64.1,54.0,64.0,45.9,-99.9,98,75,48,30.06,29.97,2,0,0,0.00
2013-8-20,85.0,70.4,60.0,68.0,60.4,-99.9,95,76,47,30.05,29.99,3,0,0,0.00
2013-8-21,87.0,74.3,64.0,70.0,65.2,62.0,95,76,48,30.02,29.88,3,0,0,0.00
2013-8-22,75.0,69.8,63.0,70.0,66.8,62.0,98,90,74,30.01,29.87,6,0,0,0.00
2013-8-23,84.0,66.7,54.0,66.0,56.1,52.0,95,72,37,30.13,30.01,0,0,0,0.00
2013-8-24,85.0,68.1,55.0,63.0,57.5,54.0,99,73,40,30.23,30.11,1,0,0,0.00
2013-8-25,87.0,71.6,60.0,69.0,60.7,-99.9,92,72,53,30.20,30.05,4,1,0,0.00
2013-8-26,83.0,74.9,69.0,72.0,67.9,64.0,93,79,67,30.07,29.89,2,1,0,0.00
2013-8-27,87.0,75.3,70.0,78.0,72.0,68.0,97,90,71,29.91,29.79,2,0,0,0.00
2013-8-28,86.0,77.7,70.0,74.0,71.6,68.0,96,82,65,29.95,29.86,1,0,0,0.00
2013-8-29,88.0,75.1,64.0,72.0,68.0,63.0,99,81,52,30.02,29.91,1,0,0,0.00
2013-8-30,87.0,75.2,67.0,75.0,69.6,66.0,97,84,62,29.92,29.67,4,1,0,0.00
2013-8-31,79.0,70.1,63.0,69.0,65.4,62.0,98,86,67,29.79,29.70,1,0,0,0.00
2013-9-1,83.0,69.7,62.0,72.0,64.7,-99.9,98,87,69,29.79,29.63,1,0,0,0.00
2013-9-2,73.0,65.3,58.0,68.0,59.6,53.0,97,83,65,29.89,29.67,1,0,0,0.00
2013-9-3,78.0,63.8,52.0,60.0,55.0,50.0,94,75,50,29.99,29.88,1,0,0,0.00
2013-9-4,81.0,66.6,55.0,66.0,59.6,54.0,98,80,55,30.05,29.95,2,1,0,0.00
2013-9-5,74.0,61.0,50.0,60.0,50.9,47.0,94,73,40,30.21,30.05,1,0,0,0.00
2013-9-6,79.0,64.7,50.0,58.0,53.5,47.0,91,69,45,30.19,29.96,2,0,0,0.00
2013-9-7,79.0,71.2,62.0,69.0,65.3,56.0,94,82,68,29.96,29.82,2,0,0,0.00
2013-9-8,77.0,67.6,59.0,64.0,56.4,-99.9,96,72,55,30.02,29.87,2,1,0,0.00
2013-9-9,83.0,73.0,59.0,74.0,67.9,54.0,98,84,71,29.98,29.76,1,0,0,0.00
2013-9-10,91.0,84.1,73.0,73.0,67.9,65.0,93,60,45,29.89,29.75,4,2,0,0.00
2013-9-11,85.0,76.4,66.0,72.0,67.1,64.0,94,74,56,29.93,29.87,3,0,0,0.00
2013-9-12,79.0,66.7,53.0,64.0,58.5,50.0,97,77,51,29.96,29.83,1,0,0,0.00
2013-9-13,65.0,56.4,46.0,50.0,44.7,41.0,94,67,43,30.09,29.96,1,0,0,0.00
2013-9-14,69.0,58.9,44.0,54.0,48.7,42.0,95,71,44,30.14,30.01,2,0,0,0.00
2013-9-15,52.0,45.4,51.0,50.0,30.6,-99.9,92,80,90,30.01,29.99,0,0,0,0.00
2013-9-16,62.0,54.8,46.0,50.0,47.0,42.0,93,76,57,30.32,30.28,1,0,0,0.00
2013-9-17,68.0,58.1,43.0,53.0,47.3,41.0,91,69,47,30.35,30.14,1,0,0,0.00
2013-9-18,64.0,51.1,50.0,49.0,48.0,47.0,89,89,87,30.14,29.93,0,0,0,0.00
2013-9-19,73.0,69.1,62.0,69.0,65.0,55.0,98,87,75,29.93,29.76,2,0,0,0.00
2013-9-20,69.0,68.1,67.0,67.0,66.1,65.0,93,93,93,29.80,29.74,1,0,0,0.00
2013-9-21,67.0,59.1,52.0,55.0,50.6,47.0,87,74,60,29.85,29.71,1,0,0,0.00
2013-9-22,52.0,44.0,51.0,47.0,26.0,-99.9,87,73,84,29.86,29.85,0,0,0,0.00
2013-9-23,65.0,56.4,46.0,49.0,46.1,43.0,97,70,52,30.14,30.04,1,0,0,0.00
2013-9-24,69.0,58.3,45.0,53.0,49.5,43.0,98,74,52,30.09,29.93,2,0,0,0.00
2013-9-25,73.0,63.1,49.0,53.0,50.8,47.0,96,67,48,29.96,29.90,1,0,0,0.00
2013-9-26,77.0,64.5,50.0,56.0,52.3,48.0,98,68,40,30.06,29.93,1,0,0,0.00
2013-9-27,79.0,67.5,51.0,58.0,54.4,49.0,98,66,42,30.16,30.06,1,0,0,0.00
2013-9-28,78.0,69.8,56.0,60.0,56.4,52.0,88,64,47,30.10,29.87,3,1,0,0.00
2013-9-29,71.0,61.3,51.0,57.0,50.1,-99.9,94,72,54,29.93,29.85,0,0,0,0.00
2013-9-30,73.0,61.2,49.0,57.0,52.7,48.0,95,76,48,29.94,29.84,1,0,0,0.00
2013-10-1,65.0,62.2,54.0,62.0,60.0,52.0,95,93,89,29.85,29.84,0,0,0,0.00
2013-10-2,80.0,66.8,52.0,61.0,51.0,43.0,98,63,28,30.04,29.85,1,0,0,0.00
2013-10-3,78.0,69.4,51.0,68.0,63.5,47.0,94,82,70,29.98,29.83,5,1,0,0.00
2013-10-4,77.0,71.7,66.0,69.0,66.7,62.0,96,85,72,29.94,29.85,1,0,0,0.00
2013-10-5,74.0,69.4,63.0,70.0,66.8,61.0,98,91,84,29.93,29.71,1,0,0,0.00
2013-10-6,68.0,68.0,68.0,67.0,67.0,67.0,97,97,97,29.72,29.71,1,0,0,0.00
2013-10-7,63.0,53.9,47.0,53.0,48.3,45.0,97,83,59,30.03,29.67,3,1,0,0.00
2013-10-8,71.0,61.9,47.0,53.0,49.3,45.0,91,65,49,30.19,30.03,3,1,0,0.00
2013-10-9,72.0,62.9,52.0,52.0,48.8,45.0,92,62,43,30.24,30.11,2,0,0,0.00
2013-10-10,74.0,62.5,50.0,54.0,49.3,45.0,98,65,42,30.15,30.04,2,0,0,0.00
2013-10-11,73.0,61.9,47.0,52.0,50.0,46.0,96,67,44,30.09,29.98,2,0,0,0.00
2013-10-12,78.0,67.1,54.0,61.0,55.9,49.0,96,70,43,30.02,29.91,3,1,0,0.00
2013-10-13,67.0,55.1,45.0,60.0,44.9,-99.9,98,73,48,30.32,30.02,1,0,0,0.00
2013-10-14,64.0,54.6,44.0,45.0,41.5,38.0,97,64,39,30.37,30.21,2,0,0,0.00
2013-10-15,64.0,58.0,45.0,59.0,54.2,42.0,97,88,78,30.21,29.72,3,1,0,0.00
2013-10-16,60.0,51.8,50.0,59.0,50.4,49.0,96,94,92,29.83,29.72,2,1,0,0.00
2013-10-17,50.0,50.0,50.0,49.0,49.0,49.0,97,97,97,29.82,29.82,0,0,0,0.00
2013-10-18,59.0,51.6,44.0,50.0,45.1,42.0,98,79,65,29.83,29.76,6,2,0,0.00
2013-10-19,53.0,45.7,39.0,43.0,38.6,32.0,94,78,46,29.82,29.68,5,1,0,0.00
2013-10-20,56.0,49.8,40.0,48.0,40.0,-99.9,97,73,54,29.84,29.67,4,1,0,0.00
2013-10-21,52.0,44.3,39.0,50.0,36.9,29.0,93,75,66,29.83,29.70,4,2,0,0.00
2013-10-22,48.0,44.5,38.0,36.0,34.2,29.0,70,67,59,29.84,29.83,4,2,0,0.00